sensor_id;sensor_type;location;lat;lon;timestamp;P1;durP1;ratioP1;P2;durP2;ratioP2
58470;SDS011;44258;51.288;12.068;2022-10-14T00:00:42;22.55;;;9.10;;
58470;SDS011;44258;51.288;12.068;2022-10-14T00:03:08;25.70;;;8.32;;
58470;SDS011;44258;51.288;12.068;2022-10-14T00:05:39;18.50;;;7.68;;
58470;SDS011;44258;51.288;12.068;2022-10-14T00:08:07;17.75;;;7.57;;
58470;SDS011;44258;51.288;12.068;2022-10-14T00:10:35;20.30;;;8.32;;
58470;SDS011;44258;51.288;12.068;2022-10-14T00:13:06;18.73;;;8.13;;
58470;SDS011;44258;51.288;12.068;2022-10-14T00:15:36;20.08;;;8.20;;
58470;SDS011;44258;51.288;12.068;2022-10-14T00:18:07;21.10;;;8.27;;
58470;SDS011;44258;51.288;12.068;2022-10-14T00:20:34;18.30;;;7.85;;
58470;SDS011;44258;51.288;12.068;2022-10-14T00:23:03;19.17;;;8.60;;
58470;SDS011;44258;51.288;12.068;2022-10-14T00:25:30;18.80;;;8.13;;
58470;SDS011;44258;51.288;12.068;2022-10-14T00:27:57;20.00;;;8.25;;
58470;SDS011;44258;51.288;12.068;2022-10-14T00:30:27;20.33;;;8.30;;
58470;SDS011;44258;51.288;12.068;2022-10-14T00:32:54;22.02;;;8.68;;
58470;SDS011;44258;51.288;12.068;2022-10-14T00:35:21;18.35;;;7.97;;
58470;SDS011;44258;51.288;12.068;2022-10-14T00:37:47;21.15;;;8.68;;
58470;SDS011;44258;51.288;12.068;2022-10-14T00:40:16;23.75;;;8.85;;
58470;SDS011;44258;51.288;12.068;2022-10-14T00:42:42;20.85;;;7.88;;
58470;SDS011;44258;51.288;12.068;2022-10-14T00:45:11;18.95;;;8.40;;
58470;SDS011;44258;51.288;12.068;2022-10-14T00:47:39;19.88;;;9.00;;
58470;SDS011;44258;51.288;12.068;2022-10-14T00:50:08;19.63;;;7.93;;
58470;SDS011;44258;51.288;12.068;2022-10-14T00:52:36;22.05;;;8.95;;
58470;SDS011;44258;51.288;12.068;2022-10-14T00:55:04;18.00;;;8.43;;
58470;SDS011;44258;51.288;12.068;2022-10-14T00:57:35;22.70;;;9.10;;
58470;SDS011;44258;51.288;12.068;2022-10-14T01:00:04;23.25;;;8.15;;
58470;SDS011;44258;51.288;12.068;2022-10-14T01:02:32;22.05;;;8.60;;
58470;SDS011;44258;51.288;12.068;2022-10-14T01:04:59;19.02;;;8.70;;
58470;SDS011;44258;51.288;12.068;2022-10-14T01:07:30;20.73;;;9.38;;
58470;SDS011;44258;51.288;12.068;2022-10-14T01:10:21;20.30;;;8.52;;
58470;SDS011;44258;51.288;12.068;2022-10-14T01:13:00;21.75;;;9.43;;
58470;SDS011;44258;51.288;12.068;2022-10-14T01:15:35;20.40;;;9.10;;
58470;SDS011;44258;51.288;12.068;2022-10-14T01:18:13;22.58;;;9.15;;
58470;SDS011;44258;51.288;12.068;2022-10-14T01:23:49;21.08;;;8.65;;
58470;SDS011;44258;51.288;12.068;2022-10-14T01:26:57;23.23;;;8.05;;
58470;SDS011;44258;51.288;12.068;2022-10-14T01:32:31;27.05;;;9.43;;
58470;SDS011;44258;51.288;12.068;2022-10-14T01:35:06;23.10;;;8.48;;
58470;SDS011;44258;51.288;12.068;2022-10-14T01:37:39;19.95;;;9.23;;
58470;SDS011;44258;51.288;12.068;2022-10-14T01:40:15;21.25;;;8.43;;
58470;SDS011;44258;51.288;12.068;2022-10-14T01:42:47;21.63;;;9.27;;
58470;SDS011;44258;51.288;12.068;2022-10-14T01:45:18;24.38;;;9.10;;
58470;SDS011;44258;51.288;12.068;2022-10-14T01:47:47;25.75;;;9.07;;
58470;SDS011;44258;51.288;12.068;2022-10-14T01:50:17;23.45;;;9.23;;
58470;SDS011;44258;51.288;12.068;2022-10-14T01:52:47;22.08;;;9.15;;
58470;SDS011;44258;51.288;12.068;2022-10-14T01:55:18;22.40;;;9.02;;
58470;SDS011;44258;51.288;12.068;2022-10-14T01:57:49;20.95;;;9.10;;
58470;SDS011;44258;51.288;12.068;2022-10-14T02:00:20;21.25;;;8.35;;
58470;SDS011;44258;51.288;12.068;2022-10-14T02:02:46;20.40;;;9.35;;
58470;SDS011;44258;51.288;12.068;2022-10-14T02:05:14;22.48;;;8.65;;
58470;SDS011;44258;51.288;12.068;2022-10-14T02:07:47;19.98;;;8.15;;
58470;SDS011;44258;51.288;12.068;2022-10-14T02:10:20;22.98;;;9.43;;
58470;SDS011;44258;51.288;12.068;2022-10-14T02:12:59;22.30;;;9.10;;
58470;SDS011;44258;51.288;12.068;2022-10-14T02:15:37;23.92;;;9.43;;
58470;SDS011;44258;51.288;12.068;2022-10-14T02:18:13;24.77;;;9.25;;
58470;SDS011;44258;51.288;12.068;2022-10-14T02:20:48;17.90;;;7.93;;
58470;SDS011;44258;51.288;12.068;2022-10-14T02:23:20;19.52;;;8.05;;
58470;SDS011;44258;51.288;12.068;2022-10-14T02:25:52;19.63;;;9.13;;
58470;SDS011;44258;51.288;12.068;2022-10-14T02:28:22;20.17;;;8.85;;
58470;SDS011;44258;51.288;12.068;2022-10-14T02:30:54;20.45;;;8.35;;
58470;SDS011;44258;51.288;12.068;2022-10-14T02:33:25;23.52;;;9.02;;
58470;SDS011;44258;51.288;12.068;2022-10-14T02:35:58;22.40;;;7.88;;
58470;SDS011;44258;51.288;12.068;2022-10-14T02:38:26;20.20;;;8.43;;
58470;SDS011;44258;51.288;12.068;2022-10-14T02:40:55;20.05;;;8.63;;
58470;SDS011;44258;51.288;12.068;2022-10-14T02:43:25;21.92;;;8.88;;
58470;SDS011;44258;51.288;12.068;2022-10-14T02:45:56;22.77;;;9.35;;
58470;SDS011;44258;51.288;12.068;2022-10-14T02:48:25;20.77;;;9.02;;
58470;SDS011;44258;51.288;12.068;2022-10-14T02:50:52;24.02;;;9.65;;
58470;SDS011;44258;51.288;12.068;2022-10-14T02:53:18;20.25;;;8.23;;
58470;SDS011;44258;51.288;12.068;2022-10-14T02:55:45;21.23;;;9.45;;
58470;SDS011;44258;51.288;12.068;2022-10-14T02:58:12;17.80;;;7.97;;
58470;SDS011;44258;51.288;12.068;2022-10-14T03:00:38;19.35;;;8.07;;
58470;SDS011;44258;51.288;12.068;2022-10-14T03:03:06;23.92;;;9.00;;
58470;SDS011;44258;51.288;12.068;2022-10-14T03:05:33;20.23;;;8.90;;
58470;SDS011;44258;51.288;12.068;2022-10-14T03:08:00;19.13;;;8.82;;
58470;SDS011;44258;51.288;12.068;2022-10-14T03:10:27;22.63;;;8.95;;
58470;SDS011;44258;51.288;12.068;2022-10-14T03:12:53;21.67;;;8.85;;
58470;SDS011;44258;51.288;12.068;2022-10-14T03:15:20;21.05;;;8.43;;
58470;SDS011;44258;51.288;12.068;2022-10-14T03:17:47;20.33;;;8.73;;
58470;SDS011;44258;51.288;12.068;2022-10-14T03:20:15;18.95;;;8.57;;
58470;SDS011;44258;51.288;12.068;2022-10-14T03:22:42;23.05;;;9.02;;
58470;SDS011;44258;51.288;12.068;2022-10-14T03:25:08;19.13;;;8.73;;
58470;SDS011;44258;51.288;12.068;2022-10-14T03:27:35;17.80;;;8.15;;
58470;SDS011;44258;51.288;12.068;2022-10-14T03:30:02;19.88;;;8.68;;
58470;SDS011;44258;51.288;12.068;2022-10-14T03:32:29;18.50;;;8.27;;
58470;SDS011;44258;51.288;12.068;2022-10-14T03:34:56;18.95;;;8.60;;
58470;SDS011;44258;51.288;12.068;2022-10-14T03:37:24;18.05;;;8.23;;
58470;SDS011;44258;51.288;12.068;2022-10-14T03:39:50;22.45;;;9.13;;
58470;SDS011;44258;51.288;12.068;2022-10-14T03:42:17;22.13;;;9.10;;
58470;SDS011;44258;51.288;12.068;2022-10-14T03:44:44;20.55;;;8.68;;
58470;SDS011;44258;51.288;12.068;2022-10-14T03:47:11;20.73;;;8.70;;
58470;SDS011;44258;51.288;12.068;2022-10-14T03:49:37;21.50;;;9.30;;
58470;SDS011;44258;51.288;12.068;2022-10-14T03:52:04;19.20;;;8.90;;
58470;SDS011;44258;51.288;12.068;2022-10-14T03:54:32;22.08;;;8.32;;
58470;SDS011;44258;51.288;12.068;2022-10-14T03:56:59;18.70;;;8.15;;
58470;SDS011;44258;51.288;12.068;2022-10-14T03:59:26;24.65;;;9.63;;
58470;SDS011;44258;51.288;12.068;2022-10-14T04:01:52;22.55;;;9.10;;
58470;SDS011;44258;51.288;12.068;2022-10-14T04:04:19;21.83;;;9.60;;
58470;SDS011;44258;51.288;12.068;2022-10-14T04:06:46;21.48;;;9.80;;
58470;SDS011;44258;51.288;12.068;2022-10-14T04:09:12;21.20;;;9.15;;
58470;SDS011;44258;51.288;12.068;2022-10-14T04:11:40;23.48;;;9.30;;
58470;SDS011;44258;51.288;12.068;2022-10-14T04:14:07;20.13;;;8.73;;
58470;SDS011;44258;51.288;12.068;2022-10-14T04:16:34;20.75;;;9.32;;
58470;SDS011;44258;51.288;12.068;2022-10-14T04:19:00;21.55;;;9.13;;
58470;SDS011;44258;51.288;12.068;2022-10-14T04:21:27;20.77;;;9.05;;
58470;SDS011;44258;51.288;12.068;2022-10-14T04:23:54;23.83;;;9.15;;
58470;SDS011;44258;51.288;12.068;2022-10-14T04:26:20;20.75;;;8.45;;
58470;SDS011;44258;51.288;12.068;2022-10-14T04:28:48;20.80;;;9.32;;
58470;SDS011;44258;51.288;12.068;2022-10-14T04:31:15;22.92;;;9.18;;
58470;SDS011;44258;51.288;12.068;2022-10-14T04:33:42;22.63;;;9.38;;
58470;SDS011;44258;51.288;12.068;2022-10-14T04:36:08;21.42;;;8.48;;
58470;SDS011;44258;51.288;12.068;2022-10-14T04:38:35;23.02;;;8.73;;
58470;SDS011;44258;51.288;12.068;2022-10-14T04:41:02;22.08;;;8.43;;
58470;SDS011;44258;51.288;12.068;2022-10-14T04:43:28;23.33;;;9.07;;
58470;SDS011;44258;51.288;12.068;2022-10-14T04:45:56;22.33;;;8.60;;
58470;SDS011;44258;51.288;12.068;2022-10-14T04:48:23;18.77;;;8.63;;
58470;SDS011;44258;51.288;12.068;2022-10-14T04:50:50;19.55;;;8.65;;
58470;SDS011;44258;51.288;12.068;2022-10-14T04:53:17;21.75;;;8.45;;
58470;SDS011;44258;51.288;12.068;2022-10-14T04:55:44;20.90;;;9.23;;
58470;SDS011;44258;51.288;12.068;2022-10-14T04:58:13;21.60;;;9.13;;
58470;SDS011;44258;51.288;12.068;2022-10-14T05:00:40;18.67;;;8.27;;
58470;SDS011;44258;51.288;12.068;2022-10-14T05:03:09;23.40;;;8.93;;
58470;SDS011;44258;51.288;12.068;2022-10-14T05:05:35;22.00;;;8.10;;
58470;SDS011;44258;51.288;12.068;2022-10-14T05:08:02;20.67;;;8.80;;
58470;SDS011;44258;51.288;12.068;2022-10-14T05:10:29;20.65;;;8.27;;
58470;SDS011;44258;51.288;12.068;2022-10-14T05:12:56;20.40;;;8.27;;
58470;SDS011;44258;51.288;12.068;2022-10-14T05:15:22;22.35;;;8.90;;
58470;SDS011;44258;51.288;12.068;2022-10-14T05:17:49;22.05;;;8.95;;
58470;SDS011;44258;51.288;12.068;2022-10-14T05:20:17;21.45;;;9.13;;
58470;SDS011;44258;51.288;12.068;2022-10-14T05:22:43;20.40;;;8.88;;
58470;SDS011;44258;51.288;12.068;2022-10-14T05:25:10;23.20;;;9.00;;
58470;SDS011;44258;51.288;12.068;2022-10-14T05:27:37;21.45;;;9.63;;
58470;SDS011;44258;51.288;12.068;2022-10-14T05:30:04;24.08;;;8.95;;
58470;SDS011;44258;51.288;12.068;2022-10-14T05:32:31;20.60;;;9.18;;
58470;SDS011;44258;51.288;12.068;2022-10-14T05:34:58;22.60;;;9.13;;
58470;SDS011;44258;51.288;12.068;2022-10-14T05:37:26;21.70;;;8.68;;
58470;SDS011;44258;51.288;12.068;2022-10-14T05:39:52;20.48;;;8.98;;
58470;SDS011;44258;51.288;12.068;2022-10-14T05:42:19;21.85;;;9.57;;
58470;SDS011;44258;51.288;12.068;2022-10-14T05:44:46;21.17;;;9.48;;
58470;SDS011;44258;51.288;12.068;2022-10-14T05:47:13;22.98;;;8.90;;
58470;SDS011;44258;51.288;12.068;2022-10-14T05:49:39;25.88;;;10.57;;
58470;SDS011;44258;51.288;12.068;2022-10-14T05:52:07;25.40;;;10.63;;
58470;SDS011;44258;51.288;12.068;2022-10-14T05:54:35;21.95;;;10.35;;
58470;SDS011;44258;51.288;12.068;2022-10-14T05:57:02;19.58;;;9.52;;
58470;SDS011;44258;51.288;12.068;2022-10-14T05:59:28;23.98;;;9.95;;
58470;SDS011;44258;51.288;12.068;2022-10-14T06:01:57;22.77;;;9.23;;
58470;SDS011;44258;51.288;12.068;2022-10-14T06:04:24;22.75;;;9.63;;
58470;SDS011;44258;51.288;12.068;2022-10-14T06:06:51;23.15;;;8.80;;
58470;SDS011;44258;51.288;12.068;2022-10-14T06:09:17;29.05;;;10.98;;
58470;SDS011;44258;51.288;12.068;2022-10-14T06:11:46;24.17;;;9.18;;
58470;SDS011;44258;51.288;12.068;2022-10-14T06:14:13;19.10;;;9.60;;
58470;SDS011;44258;51.288;12.068;2022-10-14T06:16:39;23.30;;;9.80;;
58470;SDS011;44258;51.288;12.068;2022-10-14T06:19:06;21.48;;;8.88;;
58470;SDS011;44258;51.288;12.068;2022-10-14T06:21:33;21.67;;;8.90;;
58470;SDS011;44258;51.288;12.068;2022-10-14T06:23:59;20.48;;;8.65;;
58470;SDS011;44258;51.288;12.068;2022-10-14T06:26:26;20.02;;;8.15;;
58470;SDS011;44258;51.288;12.068;2022-10-14T06:28:54;24.75;;;10.43;;
58470;SDS011;44258;51.288;12.068;2022-10-14T06:31:21;20.15;;;8.65;;
58470;SDS011;44258;51.288;12.068;2022-10-14T06:33:48;22.42;;;9.60;;
58470;SDS011;44258;51.288;12.068;2022-10-14T06:36:14;26.80;;;9.55;;
58470;SDS011;44258;51.288;12.068;2022-10-14T06:38:41;19.58;;;8.77;;
58470;SDS011;44258;51.288;12.068;2022-10-14T06:41:08;24.15;;;9.52;;
58470;SDS011;44258;51.288;12.068;2022-10-14T06:43:34;21.10;;;9.32;;
58470;SDS011;44258;51.288;12.068;2022-10-14T06:46:02;25.83;;;10.13;;
58470;SDS011;44258;51.288;12.068;2022-10-14T06:48:30;20.58;;;9.60;;
58470;SDS011;44258;51.288;12.068;2022-10-14T06:50:57;22.58;;;10.75;;
58470;SDS011;44258;51.288;12.068;2022-10-14T06:53:25;23.17;;;10.35;;
58470;SDS011;44258;51.288;12.068;2022-10-14T06:55:55;29.17;;;12.50;;
58470;SDS011;44258;51.288;12.068;2022-10-14T06:58:23;31.13;;;12.85;;
58470;SDS011;44258;51.288;12.068;2022-10-14T07:00:49;23.75;;;10.02;;
58470;SDS011;44258;51.288;12.068;2022-10-14T07:03:22;23.73;;;10.55;;
58470;SDS011;44258;51.288;12.068;2022-10-14T07:05:49;19.92;;;10.07;;
58470;SDS011;44258;51.288;12.068;2022-10-14T07:08:16;21.77;;;10.40;;
58470;SDS011;44258;51.288;12.068;2022-10-14T07:10:43;27.20;;;10.35;;
58470;SDS011;44258;51.288;12.068;2022-10-14T07:13:11;21.88;;;9.90;;
58470;SDS011;44258;51.288;12.068;2022-10-14T07:15:38;21.80;;;8.95;;
58470;SDS011;44258;51.288;12.068;2022-10-14T07:18:05;24.77;;;9.60;;
58470;SDS011;44258;51.288;12.068;2022-10-14T07:20:33;25.77;;;10.10;;
58470;SDS011;44258;51.288;12.068;2022-10-14T07:23:00;22.88;;;10.52;;
58470;SDS011;44258;51.288;12.068;2022-10-14T07:25:26;24.02;;;9.25;;
58470;SDS011;44258;51.288;12.068;2022-10-14T07:27:53;21.95;;;9.77;;
58470;SDS011;44258;51.288;12.068;2022-10-14T07:30:20;21.40;;;9.38;;
58470;SDS011;44258;51.288;12.068;2022-10-14T07:32:47;21.08;;;10.38;;
58470;SDS011;44258;51.288;12.068;2022-10-14T07:35:13;20.65;;;9.70;;
58470;SDS011;44258;51.288;12.068;2022-10-14T07:37:42;21.95;;;9.68;;
58470;SDS011;44258;51.288;12.068;2022-10-14T07:40:09;24.10;;;10.80;;
58470;SDS011;44258;51.288;12.068;2022-10-14T07:42:36;31.02;;;12.10;;
58470;SDS011;44258;51.288;12.068;2022-10-14T07:45:03;30.38;;;11.55;;
58470;SDS011;44258;51.288;12.068;2022-10-14T07:47:31;26.23;;;11.55;;
58470;SDS011;44258;51.288;12.068;2022-10-14T07:50:00;25.70;;;11.57;;
58470;SDS011;44258;51.288;12.068;2022-10-14T07:52:26;28.63;;;12.27;;
58470;SDS011;44258;51.288;12.068;2022-10-14T07:54:54;28.52;;;12.02;;
58470;SDS011;44258;51.288;12.068;2022-10-14T07:57:21;27.13;;;11.73;;
58470;SDS011;44258;51.288;12.068;2022-10-14T07:59:48;24.58;;;11.30;;
58470;SDS011;44258;51.288;12.068;2022-10-14T08:02:16;22.92;;;11.05;;
58470;SDS011;44258;51.288;12.068;2022-10-14T08:04:43;21.15;;;10.18;;
58470;SDS011;44258;51.288;12.068;2022-10-14T08:07:09;19.67;;;9.05;;
58470;SDS011;44258;51.288;12.068;2022-10-14T08:09:38;18.77;;;8.38;;
58470;SDS011;44258;51.288;12.068;2022-10-14T08:12:07;24.17;;;8.50;;
58470;SDS011;44258;51.288;12.068;2022-10-14T08:14:33;19.33;;;7.93;;
58470;SDS011;44258;51.288;12.068;2022-10-14T08:17:00;19.70;;;8.30;;
58470;SDS011;44258;51.288;12.068;2022-10-14T08:19:26;19.58;;;7.65;;
58470;SDS011;44258;51.288;12.068;2022-10-14T08:21:53;19.50;;;8.10;;
58470;SDS011;44258;51.288;12.068;2022-10-14T08:24:20;20.00;;;8.30;;
58470;SDS011;44258;51.288;12.068;2022-10-14T08:26:50;19.33;;;7.80;;
58470;SDS011;44258;51.288;12.068;2022-10-14T08:29:19;14.68;;;7.03;;
58470;SDS011;44258;51.288;12.068;2022-10-14T08:31:47;17.27;;;7.90;;
58470;SDS011;44258;51.288;12.068;2022-10-14T08:34:14;13.77;;;5.95;;
58470;SDS011;44258;51.288;12.068;2022-10-14T08:36:45;17.92;;;7.45;;
58470;SDS011;44258;51.288;12.068;2022-10-14T08:39:11;16.35;;;6.57;;
58470;SDS011;44258;51.288;12.068;2022-10-14T08:44:37;16.95;;;7.05;;
58470;SDS011;44258;51.288;12.068;2022-10-14T08:49:41;16.08;;;7.18;;
58470;SDS011;44258;51.288;12.068;2022-10-14T08:52:16;14.43;;;5.88;;
58470;SDS011;44258;51.288;12.068;2022-10-14T08:54:47;13.85;;;6.20;;
58470;SDS011;44258;51.288;12.068;2022-10-14T08:57:20;15.93;;;6.57;;
58470;SDS011;44258;51.288;12.068;2022-10-14T08:59:50;13.93;;;5.70;;
58470;SDS011;44258;51.288;12.068;2022-10-14T09:02:19;12.50;;;5.30;;
58470;SDS011;44258;51.288;12.068;2022-10-14T09:04:57;12.40;;;5.32;;
58470;SDS011;44258;51.288;12.068;2022-10-14T09:07:26;15.65;;;5.38;;
58470;SDS011;44258;51.288;12.068;2022-10-14T09:09:55;12.90;;;4.72;;
58470;SDS011;44258;51.288;12.068;2022-10-14T09:12:28;10.63;;;4.40;;
58470;SDS011;44258;51.288;12.068;2022-10-14T09:15:00;11.07;;;4.35;;
58470;SDS011;44258;51.288;12.068;2022-10-14T09:17:33;8.88;;;4.00;;
58470;SDS011;44258;51.288;12.068;2022-10-14T09:20:12;9.93;;;3.33;;
58470;SDS011;44258;51.288;12.068;2022-10-14T09:22:42;9.50;;;3.33;;
58470;SDS011;44258;51.288;12.068;2022-10-14T09:25:11;10.32;;;3.58;;
58470;SDS011;44258;51.288;12.068;2022-10-14T09:27:39;11.80;;;3.85;;
58470;SDS011;44258;51.288;12.068;2022-10-14T09:30:11;7.15;;;2.80;;
58470;SDS011;44258;51.288;12.068;2022-10-14T09:32:41;6.97;;;2.58;;
58470;SDS011;44258;51.288;12.068;2022-10-14T09:35:13;7.00;;;2.95;;
58470;SDS011;44258;51.288;12.068;2022-10-14T09:37:45;6.43;;;2.58;;
58470;SDS011;44258;51.288;12.068;2022-10-14T09:40:13;6.38;;;2.50;;
58470;SDS011;44258;51.288;12.068;2022-10-14T09:42:46;6.15;;;2.28;;
58470;SDS011;44258;51.288;12.068;2022-10-14T09:45:17;3.70;;;1.75;;
58470;SDS011;44258;51.288;12.068;2022-10-14T09:47:50;7.03;;;2.10;;
58470;SDS011;44258;51.288;12.068;2022-10-14T09:50:21;5.68;;;2.10;;
58470;SDS011;44258;51.288;12.068;2022-10-14T09:52:51;8.95;;;2.47;;
58470;SDS011;44258;51.288;12.068;2022-10-14T09:55:19;6.72;;;2.88;;
58470;SDS011;44258;51.288;12.068;2022-10-14T09:57:54;5.57;;;2.47;;
58470;SDS011;44258;51.288;12.068;2022-10-14T10:00:30;6.70;;;2.78;;
58470;SDS011;44258;51.288;12.068;2022-10-14T10:02:59;7.13;;;3.00;;
58470;SDS011;44258;51.288;12.068;2022-10-14T10:05:27;6.45;;;2.58;;
58470;SDS011;44258;51.288;12.068;2022-10-14T10:07:59;6.88;;;2.65;;
58470;SDS011;44258;51.288;12.068;2022-10-14T10:10:27;5.57;;;2.30;;
58470;SDS011;44258;51.288;12.068;2022-10-14T10:12:55;4.57;;;1.90;;
58470;SDS011;44258;51.288;12.068;2022-10-14T10:15:22;6.80;;;2.13;;
58470;SDS011;44258;51.288;12.068;2022-10-14T10:17:50;4.18;;;1.75;;
58470;SDS011;44258;51.288;12.068;2022-10-14T10:20:19;5.05;;;1.88;;
58470;SDS011;44258;51.288;12.068;2022-10-14T10:22:52;8.13;;;2.20;;
58470;SDS011;44258;51.288;12.068;2022-10-14T10:25:22;5.22;;;2.10;;
58470;SDS011;44258;51.288;12.068;2022-10-14T10:27:54;7.57;;;2.53;;
58470;SDS011;44258;51.288;12.068;2022-10-14T10:30:24;4.82;;;2.10;;
58470;SDS011;44258;51.288;12.068;2022-10-14T10:32:57;3.20;;;1.45;;
58470;SDS011;44258;51.288;12.068;2022-10-14T10:38:45;4.72;;;1.80;;
58470;SDS011;44258;51.288;12.068;2022-10-14T10:41:25;3.47;;;1.70;;
58470;SDS011;44258;51.288;12.068;2022-10-14T10:44:08;3.35;;;1.67;;
58470;SDS011;44258;51.288;12.068;2022-10-14T10:46:56;4.10;;;1.88;;
58470;SDS011;44258;51.288;12.068;2022-10-14T10:49:40;5.40;;;1.80;;
58470;SDS011;44258;51.288;12.068;2022-10-14T10:52:21;4.43;;;1.70;;
58470;SDS011;44258;51.288;12.068;2022-10-14T10:55:00;4.63;;;1.73;;
58470;SDS011;44258;51.288;12.068;2022-10-14T10:57:44;3.58;;;1.50;;
58470;SDS011;44258;51.288;12.068;2022-10-14T11:00:18;3.20;;;1.27;;
58470;SDS011;44258;51.288;12.068;2022-10-14T11:02:54;1.92;;;1.27;;
58470;SDS011;44258;51.288;12.068;2022-10-14T11:05:40;4.47;;;1.70;;
58470;SDS011;44258;51.288;12.068;2022-10-14T11:08:18;4.93;;;1.67;;
58470;SDS011;44258;51.288;12.068;2022-10-14T11:11:17;3.47;;;1.60;;
58470;SDS011;44258;51.288;12.068;2022-10-14T11:14:11;3.25;;;1.48;;
58470;SDS011;44258;51.288;12.068;2022-10-14T11:16:48;3.90;;;1.40;;
58470;SDS011;44258;51.288;12.068;2022-10-14T11:19:23;2.65;;;1.17;;
58470;SDS011;44258;51.288;12.068;2022-10-14T11:21:57;2.15;;;1.30;;
58470;SDS011;44258;51.288;12.068;2022-10-14T11:24:35;4.53;;;1.80;;
58470;SDS011;44258;51.288;12.068;2022-10-14T11:27:20;7.32;;;2.38;;
58470;SDS011;44258;51.288;12.068;2022-10-14T11:32:53;4.13;;;1.80;;
58470;SDS011;44258;51.288;12.068;2022-10-14T11:35:33;5.55;;;1.75;;
58470;SDS011;44258;51.288;12.068;2022-10-14T11:38:17;3.88;;;1.92;;
58470;SDS011;44258;51.288;12.068;2022-10-14T11:40:57;5.68;;;2.05;;
58470;SDS011;44258;51.288;12.068;2022-10-14T11:43:33;5.18;;;1.50;;
58470;SDS011;44258;51.288;12.068;2022-10-14T11:46:09;4.13;;;1.58;;
58470;SDS011;44258;51.288;12.068;2022-10-14T11:48:41;3.42;;;1.63;;
58470;SDS011;44258;51.288;12.068;2022-10-14T11:51:12;3.72;;;1.38;;
58470;SDS011;44258;51.288;12.068;2022-10-14T11:53:51;2.90;;;1.55;;
58470;SDS011;44258;51.288;12.068;2022-10-14T11:56:27;3.83;;;1.48;;
58470;SDS011;44258;51.288;12.068;2022-10-14T11:59:00;2.38;;;1.40;;
58470;SDS011;44258;51.288;12.068;2022-10-14T12:01:42;2.63;;;1.42;;
58470;SDS011;44258;51.288;12.068;2022-10-14T12:04:11;3.03;;;1.35;;
58470;SDS011;44258;51.288;12.068;2022-10-14T12:06:45;5.43;;;1.63;;
58470;SDS011;44258;51.288;12.068;2022-10-14T12:09:19;3.60;;;1.60;;
58470;SDS011;44258;51.288;12.068;2022-10-14T12:11:49;1.83;;;1.10;;
58470;SDS011;44258;51.288;12.068;2022-10-14T12:14:19;2.20;;;1.17;;
58470;SDS011;44258;51.288;12.068;2022-10-14T12:16:49;3.72;;;1.65;;
58470;SDS011;44258;51.288;12.068;2022-10-14T12:19:18;3.63;;;1.70;;
58470;SDS011;44258;51.288;12.068;2022-10-14T12:21:50;4.43;;;1.98;;
58470;SDS011;44258;51.288;12.068;2022-10-14T12:24:25;3.45;;;1.30;;
58470;SDS011;44258;51.288;12.068;2022-10-14T12:26:59;3.35;;;1.40;;
58470;SDS011;44258;51.288;12.068;2022-10-14T12:29:30;3.10;;;1.40;;
58470;SDS011;44258;51.288;12.068;2022-10-14T12:32:06;3.15;;;1.45;;
58470;SDS011;44258;51.288;12.068;2022-10-14T12:34:44;4.45;;;1.45;;
58470;SDS011;44258;51.288;12.068;2022-10-14T12:40:20;4.32;;;1.67;;
58470;SDS011;44258;51.288;12.068;2022-10-14T12:42:56;2.33;;;1.30;;
58470;SDS011;44258;51.288;12.068;2022-10-14T12:45:29;3.80;;;1.52;;
58470;SDS011;44258;51.288;12.068;2022-10-14T12:48:05;3.50;;;1.52;;
58470;SDS011;44258;51.288;12.068;2022-10-14T12:50:39;3.05;;;1.38;;
58470;SDS011;44258;51.288;12.068;2022-10-14T12:53:07;3.55;;;1.50;;
58470;SDS011;44258;51.288;12.068;2022-10-14T12:55:47;4.43;;;1.90;;
58470;SDS011;44258;51.288;12.068;2022-10-14T12:58:23;3.30;;;1.40;;
58470;SDS011;44258;51.288;12.068;2022-10-14T13:00:55;3.92;;;1.40;;
58470;SDS011;44258;51.288;12.068;2022-10-14T13:03:26;2.50;;;1.30;;
58470;SDS011;44258;51.288;12.068;2022-10-14T13:09:17;3.45;;;1.40;;
58470;SDS011;44258;51.288;12.068;2022-10-14T13:18:11;3.03;;;1.50;;
58470;SDS011;44258;51.288;12.068;2022-10-14T13:20:58;3.92;;;1.25;;
58470;SDS011;44258;51.288;12.068;2022-10-14T13:23:28;4.88;;;1.67;;
58470;SDS011;44258;51.288;12.068;2022-10-14T13:26:08;5.78;;;2.10;;
58470;SDS011;44258;51.288;12.068;2022-10-14T13:28:43;5.30;;;1.90;;
58470;SDS011;44258;51.288;12.068;2022-10-14T13:31:22;3.58;;;1.90;;
58470;SDS011;44258;51.288;12.068;2022-10-14T13:33:59;7.30;;;2.35;;
58470;SDS011;44258;51.288;12.068;2022-10-14T13:36:40;5.78;;;2.17;;
58470;SDS011;44258;51.288;12.068;2022-10-14T13:39:14;7.70;;;1.80;;
58470;SDS011;44258;51.288;12.068;2022-10-14T13:41:41;5.65;;;2.00;;
58470;SDS011;44258;51.288;12.068;2022-10-14T13:44:09;7.45;;;2.78;;
58470;SDS011;44258;51.288;12.068;2022-10-14T13:46:40;6.97;;;2.38;;
58470;SDS011;44258;51.288;12.068;2022-10-14T13:49:11;4.47;;;1.75;;
58470;SDS011;44258;51.288;12.068;2022-10-14T13:51:42;4.28;;;1.70;;
58470;SDS011;44258;51.288;12.068;2022-10-14T13:54:15;6.43;;;2.15;;
58470;SDS011;44258;51.288;12.068;2022-10-14T13:56:43;9.20;;;3.25;;
58470;SDS011;44258;51.288;12.068;2022-10-14T13:59:22;6.75;;;2.63;;
58470;SDS011;44258;51.288;12.068;2022-10-14T14:01:52;7.85;;;2.50;;
58470;SDS011;44258;51.288;12.068;2022-10-14T14:04:21;5.63;;;2.30;;
58470;SDS011;44258;51.288;12.068;2022-10-14T14:06:51;4.15;;;1.77;;
58470;SDS011;44258;51.288;12.068;2022-10-14T14:09:19;5.30;;;1.50;;
58470;SDS011;44258;51.288;12.068;2022-10-14T14:11:48;3.83;;;1.58;;
58470;SDS011;44258;51.288;12.068;2022-10-14T14:14:17;3.78;;;1.40;;
58470;SDS011;44258;51.288;12.068;2022-10-14T14:16:47;3.17;;;1.33;;
58470;SDS011;44258;51.288;12.068;2022-10-14T14:19:19;2.75;;;1.55;;
58470;SDS011;44258;51.288;12.068;2022-10-14T14:21:50;3.10;;;1.60;;
58470;SDS011;44258;51.288;12.068;2022-10-14T14:24:18;7.65;;;2.50;;
58470;SDS011;44258;51.288;12.068;2022-10-14T14:26:51;4.40;;;2.10;;
58470;SDS011;44258;51.288;12.068;2022-10-14T14:29:20;5.72;;;1.88;;
58470;SDS011;44258;51.288;12.068;2022-10-14T14:31:50;9.13;;;2.50;;
58470;SDS011;44258;51.288;12.068;2022-10-14T14:34:19;5.57;;;2.13;;
58470;SDS011;44258;51.288;12.068;2022-10-14T14:36:47;6.63;;;2.53;;
58470;SDS011;44258;51.288;12.068;2022-10-14T14:39:17;5.47;;;2.00;;
58470;SDS011;44258;51.288;12.068;2022-10-14T14:41:50;6.25;;;2.20;;
58470;SDS011;44258;51.288;12.068;2022-10-14T14:44:19;5.45;;;2.33;;
58470;SDS011;44258;51.288;12.068;2022-10-14T14:46:48;12.77;;;5.07;;
58470;SDS011;44258;51.288;12.068;2022-10-14T14:49:17;12.75;;;4.93;;
58470;SDS011;44258;51.288;12.068;2022-10-14T14:51:47;7.75;;;3.45;;
58470;SDS011;44258;51.288;12.068;2022-10-14T14:54:16;7.10;;;3.00;;
58470;SDS011;44258;51.288;12.068;2022-10-14T14:56:45;5.43;;;2.20;;
58470;SDS011;44258;51.288;12.068;2022-10-14T14:59:18;8.05;;;3.05;;
58470;SDS011;44258;51.288;12.068;2022-10-14T15:01:48;6.80;;;2.63;;
58470;SDS011;44258;51.288;12.068;2022-10-14T15:04:15;7.53;;;2.42;;
58470;SDS011;44258;51.288;12.068;2022-10-14T15:06:49;7.05;;;2.47;;
58470;SDS011;44258;51.288;12.068;2022-10-14T15:09:19;10.15;;;3.65;;
58470;SDS011;44258;51.288;12.068;2022-10-14T15:11:48;9.02;;;3.22;;
58470;SDS011;44258;51.288;12.068;2022-10-14T15:14:25;7.00;;;3.05;;